Time;durP1;ratioP1;P1;durP2;ratioP2;P2;SDS_P1;SDS_P2;PMS_P1;PMS_P2;Temp;Humidity;BMP_temperature;BMP_pressure;BME280_temperature;BME280_humidity;BME280_pressure;Samples;Min_cycle;Max_cycle;Signal;HPM_P1;HPM_P2
2023/11/30 00:01:19;;;;;;;36.45;18.73;;;-0.50;99.90;;;;;;4999317;28;20068;-77
2023/11/30 00:03:44;;;;;;;29.27;16.52;;;-0.60;99.90;;;;;;4980609;28;20049;-78
2023/11/30 00:06:10;;;;;;;35.38;19.52;;;-0.60;99.90;;;;;;5001725;28;20025;-78
2023/11/30 00:08:35;;;;;;;25.85;12.50;;;-0.50;99.90;;;;;;5000970;28;20035;-78
2023/11/30 00:11:05;;;;;;;29.30;16.27;;;-0.40;99.90;;;;;;5000492;28;20044;-78
2023/11/30 00:13:30;;;;;;;24.20;13.70;;;-0.30;99.90;;;;;;5002322;28;20559;-78
2023/11/30 00:15:56;;;;;;;28.70;15.18;;;-0.40;99.90;;;;;;5000380;28;20026;-77
2023/11/30 00:18:21;;;;;;;40.95;20.05;;;-0.30;99.90;;;;;;4983127;28;20026;-78
2023/11/30 00:20:47;;;;;;;28.33;14.68;;;-0.40;99.90;;;;;;4997081;28;20033;-78
2023/11/30 00:23:12;;;;;;;29.45;16.70;;;-0.40;99.90;;;;;;4987653;28;20429;-79
2023/11/30 00:25:38;;;;;;;25.23;14.30;;;-0.40;99.90;;;;;;4982116;28;20491;-78
2023/11/30 00:28:04;;;;;;;22.52;11.52;;;-0.30;99.90;;;;;;4991529;28;20125;-78
2023/11/30 00:30:29;;;;;;;27.10;14.32;;;-0.20;99.90;;;;;;5007322;28;20052;-77
2023/11/30 00:32:55;;;;;;;61.05;29.23;;;-0.30;99.90;;;;;;4999806;28;20044;-78
2023/11/30 00:35:20;;;;;;;37.25;21.83;;;-0.30;99.90;;;;;;4994625;28;20116;-78
2023/11/30 00:37:46;;;;;;;41.22;20.63;;;-0.30;99.90;;;;;;4998137;28;20405;-78
2023/11/30 00:40:11;;;;;;;41.25;20.27;;;-0.60;99.90;;;;;;4997479;28;20458;-78
2023/11/30 00:42:37;;;;;;;38.95;20.90;;;-0.70;99.90;;;;;;4997095;28;20036;-78
2023/11/30 00:45:03;;;;;;;29.17;15.15;;;-0.70;99.90;;;;;;5002583;28;20052;-78
2023/11/30 00:47:29;;;;;;;25.77;14.20;;;-0.50;99.90;;;;;;4964568;28;20401;-78
2023/11/30 00:49:54;;;;;;;29.63;16.75;;;-0.40;99.90;;;;;;4980643;28;20038;-78
2023/11/30 00:52:20;;;;;;;35.92;18.95;;;-0.50;99.90;;;;;;4980716;28;20041;-79
2023/11/30 00:54:45;;;;;;;33.28;17.50;;;-0.40;99.90;;;;;;4988619;28;20034;-80
2023/11/30 00:57:11;;;;;;;36.92;19.13;;;-0.50;99.90;;;;;;4981164;28;20518;-79
2023/11/30 00:59:37;;;;;;;26.95;14.50;;;-0.50;99.90;;;;;;4997424;28;20112;-79
2023/11/30 01:02:02;;;;;;;34.50;16.08;;;-0.50;99.90;;;;;;4982526;28;20491;-79
2023/11/30 01:04:28;;;;;;;34.85;18.58;;;-0.30;99.90;;;;;;4980134;28;20172;-79
2023/11/30 01:06:53;;;;;;;28.83;16.33;;;-0.30;99.90;;;;;;5014338;28;20037;-79
2023/11/30 01:09:19;;;;;;;34.20;18.45;;;-0.30;99.90;;;;;;5015973;28;20030;-79
2023/11/30 01:11:44;;;;;;;37.67;19.67;;;-0.40;99.90;;;;;;4972802;28;20057;-79
2023/11/30 01:14:10;;;;;;;39.85;20.20;;;-0.60;99.90;;;;;;4999991;28;20146;-79
2023/11/30 01:16:35;;;;;;;38.70;19.30;;;-0.70;99.90;;;;;;4982220;28;20026;-79
2023/11/30 01:19:01;;;;;;;37.20;17.02;;;-0.70;99.90;;;;;;4980154;28;20532;-79
2023/11/30 01:21:26;;;;;;;30.25;15.65;;;-0.70;99.90;;;;;;4998005;28;20508;-79
2023/11/30 01:23:52;;;;;;;31.75;17.02;;;-0.60;99.90;;;;;;4982846;28;20050;-79
2023/11/30 01:26:17;;;;;;;35.72;18.65;;;-0.50;99.90;;;;;;4998018;28;20041;-79
2023/11/30 01:28:43;;;;;;;36.25;19.30;;;-0.50;99.90;;;;;;4997579;28;20030;-79
2023/11/30 01:31:09;;;;;;;41.40;20.33;;;-0.60;99.90;;;;;;4994144;28;20083;-79
2023/11/30 01:33:36;;;;;;;32.38;15.75;;;-0.70;99.90;;;;;;4979704;28;20044;-79
2023/11/30 01:36:03;;;;;;;38.35;19.30;;;-0.40;99.90;;;;;;4998157;28;20490;-79
2023/11/30 01:38:29;;;;;;;32.45;16.90;;;-0.40;99.90;;;;;;4996091;28;20512;-78
2023/11/30 01:40:55;;;;;;;39.28;20.02;;;-0.40;99.90;;;;;;5012251;28;20030;-78
2023/11/30 01:43:21;;;;;;;29.35;15.20;;;-0.50;99.90;;;;;;4995060;28;20101;-79
2023/11/30 01:45:47;;;;;;;26.60;13.27;;;-0.50;99.90;;;;;;5000590;28;20026;-79
2023/11/30 01:48:13;;;;;;;37.55;18.90;;;-0.40;99.90;;;;;;4985188;28;20099;-79
2023/11/30 01:50:38;;;;;;;37.20;20.00;;;-0.40;99.90;;;;;;4995016;28;20449;-79
2023/11/30 01:53:04;;;;;;;35.85;19.23;;;-0.50;99.90;;;;;;4994766;28;20030;-79
2023/11/30 01:55:29;;;;;;;39.67;18.80;;;-0.70;99.90;;;;;;4998250;28;20029;-79
2023/11/30 01:57:55;;;;;;;38.05;19.80;;;-0.80;99.90;;;;;;4998990;28;20084;-79
2023/11/30 02:00:21;;;;;;;40.97;20.42;;;-0.90;99.90;;;;;;5000056;28;20422;-79
2023/11/30 02:02:46;;;;;;;39.67;19.58;;;-0.90;99.90;;;;;;4995060;28;20703;-80
2023/11/30 02:05:12;;;;;;;44.83;20.85;;;-0.90;99.90;;;;;;4980775;28;20041;-79
2023/11/30 02:07:37;;;;;;;42.92;21.65;;;-1.00;99.90;;;;;;4998716;28;20401;-79
2023/11/30 02:10:03;;;;;;;38.97;21.60;;;-1.10;99.90;;;;;;4983870;28;20589;-79
2023/11/30 02:12:29;;;;;;;40.85;20.02;;;-1.10;99.90;;;;;;4996281;28;20033;-79
2023/11/30 02:14:58;;;;;;;45.97;22.25;;;-1.10;99.90;;;;;;4993019;28;20049;-79
2023/11/30 02:17:23;;;;;;;43.63;21.23;;;-1.10;99.90;;;;;;5008177;28;20490;-79
2023/11/30 02:19:49;;;;;;;45.08;20.70;;;-1.20;99.90;;;;;;4967095;28;20125;-79
2023/11/30 02:22:14;;;;;;;45.30;20.75;;;-1.20;99.90;;;;;;4996978;28;20042;-79
2023/11/30 02:24:40;;;;;;;60.70;20.52;;;-1.30;99.90;;;;;;4976930;28;20115;-79
2023/11/30 02:27:06;;;;;;;216.32;25.98;;;-1.30;99.90;;;;;;4975427;28;20120;-80
2023/11/30 02:29:32;;;;;;;104.20;21.73;;;-1.30;99.90;;;;;;4995452;28;20488;-79
2023/11/30 02:31:58;;;;;;;263.88;28.48;;;-1.30;99.90;;;;;;4974345;28;20044;-79
2023/11/30 02:34:23;;;;;;;351.70;29.02;;;-1.20;99.90;;;;;;4986093;28;20654;-80
2023/11/30 02:36:49;;;;;;;323.48;27.38;;;-1.30;99.90;;;;;;4973646;28;20030;-80
2023/11/30 02:39:20;;;;;;;356.15;30.65;;;-1.40;99.90;;;;;;4981020;28;20136;-81
2023/11/30 02:41:45;;;;;;;96.95;20.75;;;-1.60;99.90;;;;;;4979947;28;20026;-81
2023/11/30 02:44:11;;;;;;;39.60;19.73;;;-1.60;99.90;;;;;;4981434;28;20037;-81
2023/11/30 02:46:36;;;;;;;42.42;21.00;;;-1.60;99.90;;;;;;4976520;28;20390;-80
2023/11/30 02:49:02;;;;;;;43.70;20.95;;;-1.50;99.90;;;;;;4979767;28;20521;-81
2023/11/30 02:51:28;;;;;;;37.58;19.88;;;-1.60;99.90;;;;;;4988512;28;20027;-81
2023/11/30 02:53:53;;;;;;;48.78;22.30;;;-1.50;99.90;;;;;;4994766;28;20029;-80
2023/11/30 02:56:19;;;;;;;41.38;20.00;;;-1.50;99.90;;;;;;4996813;28;20041;-80
2023/11/30 02:58:44;;;;;;;31.55;15.70;;;-1.40;99.90;;;;;;4994839;28;20026;-81
2023/11/30 03:01:10;;;;;;;47.72;21.25;;;-1.20;99.90;;;;;;4996182;28;20034;-80
2023/11/30 03:03:35;;;;;;;45.72;22.30;;;-1.30;99.90;;;;;;4976973;28;20417;-81
2023/11/30 03:06:01;;;;;;;39.47;20.17;;;-1.40;99.90;;;;;;4999483;28;20115;-79
2023/11/30 03:08:26;;;;;;;47.25;20.45;;;-1.40;99.90;;;;;;4998079;28;20680;-81
2023/11/30 03:10:52;;;;;;;42.80;19.58;;;-1.50;99.90;;;;;;4982158;28;20030;-81
2023/11/30 03:13:18;;;;;;;49.65;21.27;;;-1.50;99.90;;;;;;4998607;28;20054;-80
2023/11/30 03:15:44;;;;;;;46.50;21.33;;;-1.50;99.90;;;;;;4998205;28;20563;-79
2023/11/30 03:18:10;;;;;;;42.58;20.40;;;-1.50;99.90;;;;;;4996180;28;20040;-80
2023/11/30 03:20:36;;;;;;;50.78;22.42;;;-1.50;99.90;;;;;;4989352;28;20389;-81
2023/11/30 03:23:04;;;;;;;39.28;17.75;;;-1.50;99.90;;;;;;4996896;28;21061;-79
2023/11/30 03:25:30;;;;;;;46.58;20.33;;;-1.50;99.90;;;;;;4981611;28;20509;-79
2023/11/30 03:27:55;;;;;;;53.60;23.05;;;-1.40;99.90;;;;;;4982285;28;20038;-79
2023/11/30 03:30:21;;;;;;;42.08;18.67;;;-1.30;99.90;;;;;;4987077;28;20027;-79
2023/11/30 03:32:46;;;;;;;38.58;17.80;;;-1.30;99.90;;;;;;4982722;28;20510;-80
2023/11/30 03:35:12;;;;;;;47.42;20.63;;;-1.20;99.90;;;;;;4995878;28;20065;-80
2023/11/30 03:37:40;;;;;;;51.40;22.45;;;-1.10;99.90;;;;;;4997058;28;20129;-80
2023/11/30 03:40:06;;;;;;;45.55;21.05;;;-1.30;99.90;;;;;;4987140;28;20054;-79
2023/11/30 03:42:32;;;;;;;40.88;19.70;;;-1.50;99.90;;;;;;4988400;28;20045;-80
2023/11/30 03:44:57;;;;;;;50.83;21.67;;;-1.50;99.90;;;;;;4985561;28;20095;-80
2023/11/30 03:47:23;;;;;;;47.78;21.08;;;-1.60;99.90;;;;;;5001700;28;20253;-79
2023/11/30 03:49:48;;;;;;;42.45;19.02;;;-1.60;99.90;;;;;;4982507;28;20437;-79
2023/11/30 03:52:14;;;;;;;47.95;20.90;;;-1.40;99.90;;;;;;4999380;28;20619;-79
2023/11/30 03:54:40;;;;;;;45.30;21.25;;;-1.50;99.90;;;;;;5000116;28;20057;-80
2023/11/30 03:57:05;;;;;;;49.80;21.63;;;-1.50;99.90;;;;;;4997173;28;20414;-80
2023/11/30 03:59:31;;;;;;;56.05;24.23;;;-1.50;99.90;;;;;;5017143;28;20382;-80
2023/11/30 04:01:56;;;;;;;60.70;24.88;;;-1.60;99.90;;;;;;5001906;28;20646;-79
2023/11/30 04:04:22;;;;;;;59.65;26.30;;;-1.50;99.90;;;;;;4991619;28;20035;-79
2023/11/30 04:06:48;;;;;;;60.83;27.67;;;-1.50;99.90;;;;;;4991633;28;20087;-80
2023/11/30 04:09:14;;;;;;;57.10;29.05;;;-1.50;99.90;;;;;;4980262;28;20106;-80
2023/11/30 04:11:39;;;;;;;73.78;33.47;;;-1.50;99.90;;;;;;4995118;28;20077;-79
2023/11/30 04:14:05;;;;;;;69.57;33.95;;;-1.50;99.90;;;;;;5010287;28;20475;-77
2023/11/30 04:16:31;;;;;;;65.15;30.67;;;-1.50;99.90;;;;;;4983999;28;20384;-78
2023/11/30 04:18:57;;;;;;;66.43;30.02;;;-1.50;99.90;;;;;;4984580;28;20037;-78
2023/11/30 04:21:23;;;;;;;66.13;28.40;;;-1.40;99.90;;;;;;5007348;28;20030;-78
2023/11/30 04:23:48;;;;;;;62.50;26.17;;;-1.40;99.90;;;;;;4988964;28;20027;-77
2023/11/30 04:26:14;;;;;;;63.25;26.50;;;-1.30;99.90;;;;;;4984640;28;20100;-77
2023/11/30 04:28:39;;;;;;;57.50;24.83;;;-1.30;99.90;;;;;;5016848;28;20420;-77
2023/11/30 04:31:05;;;;;;;51.10;23.85;;;-1.30;99.90;;;;;;4994550;28;20255;-78
2023/11/30 04:33:31;;;;;;;61.40;25.38;;;-1.40;99.90;;;;;;4980284;28;20037;-78
2023/11/30 04:35:56;;;;;;;63.95;27.05;;;-1.40;99.90;;;;;;4980714;28;20069;-77
2023/11/30 04:38:22;;;;;;;55.00;23.92;;;-1.40;99.90;;;;;;4981992;28;20050;-77
2023/11/30 04:40:47;;;;;;;60.53;24.25;;;-1.50;99.90;;;;;;4978273;28;20050;-77
2023/11/30 04:43:13;;;;;;;60.95;25.45;;;-1.50;99.90;;;;;;4980913;28;20088;-79
2023/11/30 04:45:38;;;;;;;55.10;24.98;;;-1.40;99.90;;;;;;4981299;28;20426;-79
2023/11/30 04:48:04;;;;;;;55.28;22.55;;;-1.40;99.90;;;;;;4998157;28;20042;-77
2023/11/30 04:50:30;;;;;;;57.75;23.20;;;-1.40;99.90;;;;;;5011934;28;20412;-77
2023/11/30 04:52:55;;;;;;;48.80;19.70;;;-1.40;99.90;;;;;;4996196;28;20042;-78
2023/11/30 04:55:21;;;;;;;55.75;24.20;;;-1.30;99.90;;;;;;4982757;28;20059;-77
2023/11/30 04:57:47;;;;;;;51.17;22.10;;;-1.20;99.90;;;;;;4997833;28;20045;-77
2023/11/30 05:00:13;;;;;;;51.92;21.83;;;-1.20;99.90;;;;;;4996863;28;20030;-78
2023/11/30 05:02:49;;;;;;;48.75;22.10;;;-1.30;99.90;;;;;;4996584;28;20042;-77
2023/11/30 05:05:15;;;;;;;61.00;23.58;;;-1.30;99.90;;;;;;4981532;28;20034;-77
2023/11/30 05:07:40;;;;;;;52.20;23.48;;;-1.30;99.90;;;;;;4984976;28;20031;-77
2023/11/30 05:10:06;;;;;;;56.38;23.52;;;-1.30;99.90;;;;;;4965789;28;20034;-77
2023/11/30 05:12:32;;;;;;;54.15;23.10;;;-1.30;99.90;;;;;;4994550;28;20446;-78
2023/11/30 05:14:57;;;;;;;56.22;23.45;;;-1.30;99.90;;;;;;4998275;28;20169;-77
2023/11/30 05:17:23;;;;;;;61.13;24.45;;;-1.30;99.90;;;;;;4996843;28;20113;-78
2023/11/30 05:19:48;;;;;;;55.33;22.85;;;-1.20;99.90;;;;;;4970494;28;20065;-78
2023/11/30 05:22:14;;;;;;;53.40;21.73;;;-1.30;99.90;;;;;;4978116;28;20041;-79
2023/11/30 05:24:39;;;;;;;56.03;23.40;;;-1.20;99.90;;;;;;4984485;28;20186;-78
2023/11/30 05:27:05;;;;;;;53.90;23.38;;;-1.20;99.90;;;;;;4989617;28;20069;-77
2023/11/30 05:29:30;;;;;;;51.30;21.95;;;-1.20;99.90;;;;;;4993250;28;20469;-80
2023/11/30 05:31:56;;;;;;;53.40;21.80;;;-1.20;99.90;;;;;;4989056;28;20049;-79
2023/11/30 05:34:22;;;;;;;59.80;24.85;;;-1.20;99.90;;;;;;4964892;28;20798;-78
2023/11/30 05:36:47;;;;;;;61.13;22.48;;;-1.10;99.90;;;;;;4977708;28;20018;-77
2023/11/30 05:39:15;;;;;;;57.78;23.08;;;-1.10;99.90;;;;;;4979338;28;20041;-79
2023/11/30 05:41:41;;;;;;;51.88;22.17;;;-1.20;99.90;;;;;;4994047;28;20124;-78
2023/11/30 05:44:07;;;;;;;53.97;23.08;;;-1.10;99.90;;;;;;4998418;28;20125;-78
2023/11/30 05:46:32;;;;;;;59.55;23.02;;;-1.10;99.90;;;;;;4980790;28;20026;-78
2023/11/30 05:48:58;;;;;;;60.25;23.45;;;-1.10;99.90;;;;;;4997280;28;20037;-79
2023/11/30 05:51:24;;;;;;;57.20;23.42;;;-1.10;99.90;;;;;;4972967;28;20031;-78
2023/11/30 05:53:49;;;;;;;60.25;22.15;;;-1.10;99.90;;;;;;4991304;28;20298;-79
2023/11/30 05:56:16;;;;;;;55.90;22.25;;;-1.10;99.90;;;;;;4978606;28;20104;-78
2023/11/30 05:58:41;;;;;;;56.00;22.85;;;-1.10;99.90;;;;;;4995998;28;20591;-77
2023/11/30 06:01:07;;;;;;;52.90;21.10;;;-1.10;99.90;;;;;;4984387;28;20076;-77
2023/11/30 06:03:33;;;;;;;52.90;22.30;;;-1.10;99.90;;;;;;4999597;28;20057;-77
2023/11/30 06:05:58;;;;;;;56.65;21.20;;;-1.10;99.90;;;;;;4996398;28;20441;-77
2023/11/30 06:08:24;;;;;;;57.80;23.00;;;-1.00;99.90;;;;;;4980879;28;20049;-76
2023/11/30 06:10:50;;;;;;;55.55;22.48;;;-1.00;99.90;;;;;;4999534;28;20038;-78
2023/11/30 06:13:16;;;;;;;58.88;23.40;;;-1.00;99.90;;;;;;4997007;28;20030;-77
2023/11/30 06:15:41;;;;;;;58.83;22.13;;;-1.00;99.90;;;;;;4997955;28;20149;-76
2023/11/30 06:18:07;;;;;;;61.05;26.58;;;-1.00;99.90;;;;;;4995560;28;20031;-78
2023/11/30 06:20:33;;;;;;;59.30;22.15;;;-0.90;99.90;;;;;;4995594;28;20030;-78
2023/11/30 06:22:58;;;;;;;57.80;23.25;;;-0.90;99.90;;;;;;4982709;28;20038;-77
2023/11/30 06:25:24;;;;;;;66.03;24.98;;;-0.90;99.90;;;;;;4985331;28;20084;-78
2023/11/30 06:27:49;;;;;;;73.18;26.45;;;-0.90;99.90;;;;;;4982635;28;20049;-77
2023/11/30 06:30:15;;;;;;;61.72;23.95;;;-1.00;99.90;;;;;;4980821;28;20038;-78
2023/11/30 06:32:41;;;;;;;60.60;21.98;;;-0.90;99.90;;;;;;4978883;28;20042;-77
2023/11/30 06:35:06;;;;;;;57.00;21.67;;;-0.90;99.90;;;;;;4994584;28;20030;-79
2023/11/30 06:37:32;;;;;;;60.78;23.77;;;-0.90;99.90;;;;;;4980648;28;20431;-78
2023/11/30 06:39:58;;;;;;;59.10;21.95;;;-0.90;99.90;;;;;;4978987;28;20048;-79
2023/11/30 06:42:24;;;;;;;59.38;23.60;;;-0.90;99.90;;;;;;4998691;28;20470;-81
2023/11/30 06:44:50;;;;;;;61.38;22.98;;;-0.90;99.90;;;;;;4985036;28;20036;-80
2023/11/30 06:47:15;;;;;;;52.55;22.50;;;-0.80;99.90;;;;;;4994102;28;20217;-81
2023/11/30 06:49:41;;;;;;;60.20;25.38;;;-0.80;99.90;;;;;;4969074;28;20117;-80
2023/11/30 06:52:06;;;;;;;56.45;22.67;;;-0.90;99.90;;;;;;4964735;28;20070;-80
2023/11/30 06:54:32;;;;;;;56.58;22.55;;;-0.90;99.90;;;;;;5004433;28;20057;-81
2023/11/30 06:56:57;;;;;;;62.83;23.90;;;-0.80;99.90;;;;;;4998445;28;20382;-80
2023/11/30 06:59:23;;;;;;;59.60;24.15;;;-0.80;99.90;;;;;;4993930;28;20084;-80
2023/11/30 07:01:49;;;;;;;59.42;23.60;;;-0.80;99.90;;;;;;4977222;28;20445;-80
2023/11/30 07:04:16;;;;;;;59.20;24.52;;;-0.80;99.90;;;;;;4962443;28;20042;-79
2023/11/30 07:06:41;;;;;;;67.10;24.85;;;-0.80;99.90;;;;;;4992114;28;20069;-79
2023/11/30 07:09:07;;;;;;;60.65;25.30;;;-0.70;99.90;;;;;;4998415;28;20139;-79
2023/11/30 07:11:33;;;;;;;70.75;25.63;;;-0.80;99.90;;;;;;4997301;28;20036;-79
2023/11/30 07:13:59;;;;;;;58.58;23.73;;;-0.70;99.90;;;;;;5003061;28;20501;-80
2023/11/30 07:16:25;;;;;;;59.05;23.05;;;-0.70;99.90;;;;;;4998655;28;20037;-80
2023/11/30 07:18:51;;;;;;;56.53;22.45;;;-0.70;99.90;;;;;;4999254;28;20394;-80
2023/11/30 07:21:17;;;;;;;57.95;22.85;;;-0.70;99.90;;;;;;4970448;28;20031;-80
2023/11/30 07:23:43;;;;;;;63.95;24.77;;;-0.60;99.90;;;;;;4997764;28;20037;-80
2023/11/30 07:26:12;;;;;;;61.67;24.73;;;-0.60;99.90;;;;;;5003224;28;20061;-80
2023/11/30 07:28:37;;;;;;;55.95;22.13;;;-0.60;99.90;;;;;;4997338;28;20528;-80
2023/11/30 07:31:03;;;;;;;47.83;19.70;;;-0.60;99.90;;;;;;4998092;28;20121;-80
2023/11/30 07:33:29;;;;;;;56.85;23.77;;;-0.50;99.90;;;;;;4985036;28;20826;-78
2023/11/30 07:35:54;;;;;;;64.13;24.63;;;-0.50;99.90;;;;;;4998013;28;20152;-80
2023/11/30 07:38:20;;;;;;;53.67;22.95;;;-0.60;99.90;;;;;;4997373;28;20038;-80
2023/11/30 07:40:46;;;;;;;62.95;23.75;;;-0.60;99.90;;;;;;5002432;28;20037;-80
2023/11/30 07:43:12;;;;;;;60.58;23.95;;;-0.60;99.90;;;;;;4985007;28;20030;-79
2023/11/30 07:45:38;;;;;;;61.95;24.90;;;-0.60;99.90;;;;;;4997565;28;20395;-83
2023/11/30 07:48:04;;;;;;;60.45;25.27;;;-0.60;99.90;;;;;;4984285;28;20030;-78
2023/11/30 07:50:30;;;;;;;59.60;24.88;;;-0.50;99.90;;;;;;4977926;28;20101;-79
2023/11/30 07:52:55;;;;;;;68.30;25.52;;;-0.50;99.90;;;;;;4981632;28;20092;-78
2023/11/30 07:55:21;;;;;;;65.53;24.52;;;-0.50;99.90;;;;;;5014650;28;20033;-78
2023/11/30 07:57:47;;;;;;;68.22;26.08;;;-0.50;99.90;;;;;;4999437;28;20038;-78
2023/11/30 08:00:15;;;;;;;62.53;23.90;;;-0.40;99.90;;;;;;5014043;28;20645;-78
2023/11/30 08:02:41;;;;;;;69.78;26.10;;;-0.40;99.90;;;;;;4997136;28;20027;-78
2023/11/30 08:05:07;;;;;;;63.72;24.63;;;-0.40;99.90;;;;;;4994312;28;20481;-79
2023/11/30 08:07:33;;;;;;;67.90;24.50;;;-0.40;99.90;;;;;;4982850;28;20117;-79
2023/11/30 08:09:59;;;;;;;63.00;25.77;;;-0.30;99.90;;;;;;4993610;28;20045;-79
2023/11/30 08:12:24;;;;;;;58.63;25.95;;;-0.30;99.90;;;;;;4985145;28;20172;-78
2023/11/30 08:14:50;;;;;;;68.32;26.15;;;-0.30;99.90;;;;;;4980679;28;20113;-79
2023/11/30 08:17:16;;;;;;;65.38;25.25;;;-0.30;99.90;;;;;;5000674;28;20065;-79
2023/11/30 08:19:41;;;;;;;61.72;26.13;;;-0.30;99.90;;;;;;5032204;28;20342;-78
2023/11/30 08:22:07;;;;;;;60.85;25.60;;;-0.30;99.90;;;;;;4999135;28;20056;-80
2023/11/30 08:24:33;;;;;;;54.72;21.52;;;-0.30;99.90;;;;;;4987996;28;20152;-79
2023/11/30 08:26:59;;;;;;;65.43;26.17;;;-0.30;99.90;;;;;;4998170;28;20052;-78
2023/11/30 08:29:25;;;;;;;65.88;26.45;;;-0.20;99.90;;;;;;4967898;28;20447;-78
2023/11/30 08:31:50;;;;;;;60.28;26.25;;;-0.30;99.90;;;;;;4979764;28;20481;-79
2023/11/30 08:34:16;;;;;;;67.07;24.73;;;-0.30;99.90;;;;;;4995267;28;20044;-78
2023/11/30 08:36:42;;;;;;;63.00;25.55;;;-0.30;99.90;;;;;;5000216;28;20068;-78
2023/11/30 08:39:08;;;;;;;58.08;25.02;;;-0.30;99.90;;;;;;4997492;28;20050;-79
2023/11/30 08:41:36;;;;;;;69.20;26.42;;;-0.30;99.90;;;;;;4986500;28;20101;-78
2023/11/30 08:44:03;;;;;;;62.45;25.70;;;-0.30;99.90;;;;;;4996527;28;20635;-79
2023/11/30 08:46:31;;;;;;;57.33;24.80;;;-0.30;99.90;;;;;;4980507;28;20038;-78
2023/11/30 08:48:57;;;;;;;61.95;26.38;;;-0.30;99.90;;;;;;4992549;28;20690;-79
2023/11/30 08:51:22;;;;;;;62.28;24.73;;;-0.30;99.90;;;;;;4975407;28;20184;-79
2023/11/30 08:53:48;;;;;;;58.25;24.63;;;-0.20;99.90;;;;;;4979777;28;20624;-79
2023/11/30 08:56:13;;;;;;;65.78;25.77;;;-0.20;99.90;;;;;;4993054;28;20505;-79
2023/11/30 08:58:39;;;;;;;65.97;26.38;;;-0.20;99.90;;;;;;4992950;28;20112;-79
2023/11/30 09:01:05;;;;;;;59.65;26.10;;;-0.20;99.90;;;;;;4984028;28;20031;-79
2023/11/30 09:03:31;;;;;;;61.65;25.33;;;-0.10;99.90;;;;;;4991806;28;20038;-79
2023/11/30 09:05:56;;;;;;;65.28;26.35;;;-0.10;99.90;;;;;;4977846;28;20545;-78
2023/11/30 09:08:22;;;;;;;96.32;28.13;;;0.00;99.90;;;;;;4989528;28;20049;-78
2023/11/30 09:10:47;;;;;;;66.15;27.23;;;0.10;99.90;;;;;;4996995;28;20044;-77
2023/11/30 09:13:13;;;;;;;52.38;22.63;;;0.10;99.90;;;;;;4960206;28;20023;-78
2023/11/30 09:15:39;;;;;;;73.18;26.20;;;0.10;99.90;;;;;;4987912;28;20045;-77
2023/11/30 09:18:06;;;;;;;50.85;20.83;;;0.20;99.90;;;;;;5001744;28;20034;-77
2023/11/30 09:20:31;;;;;;;57.75;24.15;;;0.30;99.90;;;;;;4996114;28;20030;-77
2023/11/30 09:22:57;;;;;;;62.17;26.80;;;0.40;99.90;;;;;;4984239;28;20257;-77
2023/11/30 09:25:22;;;;;;;52.22;24.40;;;0.40;99.90;;;;;;4979888;28;20046;-78
2023/11/30 09:27:48;;;;;;;44.25;19.38;;;0.40;99.90;;;;;;4975311;28;20030;-78
2023/11/30 09:30:14;;;;;;;64.63;26.08;;;0.50;99.90;;;;;;4958661;28;20056;-77
2023/11/30 09:32:40;;;;;;;55.97;26.17;;;0.50;99.90;;;;;;4995124;28;20040;-78
2023/11/30 09:35:05;;;;;;;64.25;28.55;;;0.50;99.90;;;;;;4998098;28;20064;-78
2023/11/30 09:37:32;;;;;;;60.55;27.77;;;0.50;99.90;;;;;;4988892;28;20064;-77
2023/11/30 09:39:57;;;;;;;65.07;26.13;;;0.50;99.90;;;;;;4989615;28;20099;-78
2023/11/30 09:42:26;;;;;;;66.13;27.00;;;0.60;99.90;;;;;;5010184;28;20046;-78
2023/11/30 09:44:54;;;;;;;39.85;18.05;;;0.70;99.90;;;;;;4997503;28;20523;-78
2023/11/30 09:47:21;;;;;;;47.78;22.10;;;0.80;99.90;;;;;;4980972;28;20110;-77
2023/11/30 09:49:47;;;;;;;51.60;26.80;;;0.90;99.90;;;;;;4975691;28;20093;-77
2023/11/30 09:52:12;;;;;;;50.95;22.33;;;0.80;99.90;;;;;;4980891;28;20037;-78
2023/11/30 09:54:38;;;;;;;57.97;25.80;;;0.90;99.90;;;;;;4978944;28;20022;-78
2023/11/30 09:57:04;;;;;;;46.85;21.13;;;0.80;99.90;;;;;;4982248;28;20046;-77
2023/11/30 09:59:30;;;;;;;47.75;21.02;;;1.10;99.90;;;;;;4969103;28;20892;-77
2023/11/30 10:01:56;;;;;;;51.05;25.45;;;1.10;99.90;;;;;;4984371;28;20039;-77
2023/11/30 10:04:23;;;;;;;47.45;22.25;;;1.30;99.90;;;;;;4985237;28;20038;-78
2023/11/30 10:06:52;;;;;;;43.92;21.27;;;1.30;99.90;;;;;;4987230;28;20034;-78
2023/11/30 10:09:19;;;;;;;41.17;18.92;;;1.60;99.90;;;;;;4968981;28;20199;-76
2023/11/30 10:11:44;;;;;;;43.10;20.38;;;1.80;99.90;;;;;;4972842;28;20153;-78
2023/11/30 10:14:10;;;;;;;45.42;21.30;;;1.80;99.90;;;;;;4981845;28;20165;-78
2023/11/30 10:16:36;;;;;;;40.72;19.42;;;2.00;99.90;;;;;;4983849;28;20130;-77
2023/11/30 10:19:02;;;;;;;38.80;20.13;;;2.10;99.90;;;;;;4979513;28;20027;-78
2023/11/30 10:21:30;;;;;;;41.85;19.67;;;2.00;99.90;;;;;;4964670;28;20030;-77
2023/11/30 10:23:57;;;;;;;34.08;17.63;;;2.10;99.90;;;;;;4977798;28;20176;-77
2023/11/30 10:26:23;;;;;;;38.72;19.70;;;2.30;99.90;;;;;;4984262;28;20026;-78
2023/11/30 10:28:50;;;;;;;43.10;21.92;;;2.40;99.90;;;;;;4983789;28;20061;-78
2023/11/30 10:31:16;;;;;;;37.00;17.55;;;2.60;99.90;;;;;;4979868;28;20035;-78
2023/11/30 10:33:43;;;;;;;42.47;23.05;;;2.70;99.90;;;;;;4967295;28;20042;-78
2023/11/30 10:36:10;;;;;;;41.72;21.02;;;2.70;99.90;;;;;;4987588;28;20117;-78
2023/11/30 10:38:39;;;;;;;38.70;19.70;;;2.80;99.90;;;;;;4978642;28;20038;-77
2023/11/30 10:41:08;;;;;;;43.03;22.05;;;2.90;99.90;;;;;;4994496;28;20024;-78
2023/11/30 10:43:36;;;;;;;41.13;22.23;;;2.70;99.90;;;;;;4992085;28;20113;-77
2023/11/30 10:46:03;;;;;;;43.42;21.23;;;2.50;99.90;;;;;;4989468;28;20104;-78
2023/11/30 10:48:29;;;;;;;36.22;18.63;;;2.70;99.90;;;;;;4964972;28;20691;-77
2023/11/30 10:50:55;;;;;;;36.58;20.77;;;3.10;99.90;;;;;;4976719;28;20031;-77
2023/11/30 10:53:53;;;;;;;32.33;18.10;;;3.10;99.90;;;;;;4967655;28;20668;-77
2023/11/30 10:56:19;;;;;;;38.80;19.08;;;3.30;99.90;;;;;;5008617;28;20474;-78
2023/11/30 10:58:46;;;;;;;33.92;17.48;;;3.30;99.90;;;;;;4995792;28;20030;-77
2023/11/30 11:01:13;;;;;;;36.55;20.27;;;3.60;99.90;;;;;;4998062;28;20066;-77
2023/11/30 11:03:51;;;;;;;32.17;18.60;;;3.50;99.90;;;;;;4995546;28;20050;-77
2023/11/30 11:06:17;;;;;;;38.13;20.08;;;3.40;99.90;;;;;;4988369;28;20038;-78
2023/11/30 11:09:02;;;;;;;27.77;17.63;;;3.80;99.90;;;;;;4996428;28;20044;-78
2023/11/30 11:11:29;;;;;;;32.28;17.98;;;3.80;99.90;;;;;;5010583;28;20038;-78
2023/11/30 11:13:55;;;;;;;29.73;17.52;;;4.10;99.90;;;;;;5013466;28;20517;-77
2023/11/30 11:16:31;;;;;;;26.85;15.73;;;4.10;99.90;;;;;;4997268;28;20108;-77
2023/11/30 11:19:00;;;;;;;30.55;16.73;;;4.00;99.90;;;;;;4985947;28;20038;-78
2023/11/30 11:21:26;;;;;;;24.17;14.77;;;3.90;99.90;;;;;;4995716;28;20493;-77
2023/11/30 11:23:51;;;;;;;22.58;14.27;;;3.70;99.90;;;;;;4999087;28;20037;-78
2023/11/30 11:26:17;;;;;;;29.50;16.13;;;4.20;99.90;;;;;;4983113;28;20076;-78
2023/11/30 11:28:42;;;;;;;26.50;15.50;;;4.20;99.90;;;;;;4994420;28;20046;-78
2023/11/30 11:31:08;;;;;;;25.75;14.27;;;4.10;99.90;;;;;;4996207;28;20092;-78
2023/11/30 11:33:33;;;;;;;22.83;13.07;;;4.80;99.90;;;;;;4976042;28;20134;-78
2023/11/30 11:36:01;;;;;;;32.53;17.75;;;5.10;99.90;;;;;;4985852;28;20169;-78
2023/11/30 11:38:26;;;;;;;27.42;15.57;;;5.20;99.90;;;;;;4997665;28;20088;-77
2023/11/30 11:40:53;;;;;;;31.85;19.38;;;4.70;99.90;;;;;;4997835;28;20038;-79
2023/11/30 11:43:19;;;;;;;23.83;13.93;;;4.90;99.90;;;;;;4996412;28;20556;-78
2023/11/30 11:45:44;;;;;;;23.15;13.63;;;5.10;99.90;;;;;;4993416;28;20038;-78
2023/11/30 11:48:11;;;;;;;32.88;19.02;;;5.60;99.90;;;;;;4988429;28;20038;-77
2023/11/30 11:50:37;;;;;;;25.17;14.48;;;5.00;99.90;;;;;;4981553;28;20030;-77
2023/11/30 11:53:06;;;;;;;24.83;12.93;;;5.30;99.90;;;;;;4967845;28;20482;-76
2023/11/30 11:55:31;;;;;;;20.33;12.75;;;5.10;99.90;;;;;;5006747;28;20034;-77
2023/11/30 11:57:57;;;;;;;18.88;11.82;;;5.70;99.90;;;;;;5002269;28;20037;-78
2023/11/30 12:00:24;;;;;;;25.27;15.10;;;6.10;99.90;;;;;;4998061;28;20034;-77
2023/11/30 12:02:50;;;;;;;19.85;11.35;;;6.30;99.90;;;;;;4989807;28;20034;-77
2023/11/30 12:05:22;;;;;;;20.13;11.90;;;6.30;99.90;;;;;;4968645;28;20073;-77
2023/11/30 12:07:51;;;;;;;30.33;17.23;;;6.70;99.90;;;;;;4992874;28;20512;-77
2023/11/30 12:10:32;;;;;;;20.38;12.93;;;6.70;99.90;;;;;;4993746;28;20038;-77
2023/11/30 12:12:59;;;;;;;21.70;13.95;;;7.10;99.90;;;;;;5012643;28;20043;-78
2023/11/30 12:15:24;;;;;;;21.58;13.32;;;7.10;99.90;;;;;;4981199;28;20038;-77
2023/11/30 12:17:50;;;;;;;23.13;12.23;;;7.10;99.90;;;;;;4969596;28;20390;-78
2023/11/30 12:20:19;;;;;;;19.52;11.77;;;7.20;99.90;;;;;;5001080;28;20052;-78
2023/11/30 12:22:45;;;;;;;18.23;10.95;;;7.40;99.90;;;;;;4997269;28;20045;-77